createdAt,value
2017-09-15T00:01:11.096Z,12.00
2017-09-15T00:03:39.253Z,12.10
2017-09-15T00:06:07.418Z,12.00
2017-09-15T00:08:35.590Z,11.90
2017-09-15T00:11:03.791Z,11.90
2017-09-15T00:13:31.950Z,11.90
2017-09-15T00:16:00.127Z,11.90
2017-09-15T00:18:29.086Z,12.00
2017-09-15T00:20:57.719Z,12.00
2017-09-15T00:23:25.888Z,12.00
2017-09-15T00:25:54.153Z,12.00
2017-09-15T00:28:22.388Z,12.10
2017-09-15T00:30:50.576Z,12.10
2017-09-15T00:33:18.738Z,12.10
2017-09-15T00:35:46.920Z,12.10
2017-09-15T00:38:15.986Z,12.10
2017-09-15T00:40:44.924Z,12.20
2017-09-15T00:43:13.027Z,12.10
2017-09-15T00:45:41.232Z,12.20
2017-09-15T00:48:13.655Z,12.10
2017-09-15T00:50:41.818Z,12.10
2017-09-15T00:53:09.972Z,12.10
2017-09-15T00:55:38.171Z,12.10
2017-09-15T00:58:06.302Z,12.00
2017-09-15T01:00:34.809Z,12.00
2017-09-15T01:03:03.198Z,12.10
2017-09-15T01:05:31.373Z,12.10
2017-09-15T01:07:59.540Z,12.10
2017-09-15T01:10:30.644Z,12.10
2017-09-15T01:12:58.852Z,12.00
2017-09-15T01:15:27.043Z,12.00
2017-09-15T01:17:56.058Z,12.10
2017-09-15T01:20:24.276Z,12.00
2017-09-15T01:22:52.468Z,12.00
2017-09-15T01:25:20.673Z,11.90
2017-09-15T01:27:48.971Z,11.80
2017-09-15T01:30:17.134Z,11.80
2017-09-15T01:32:46.221Z,11.70
2017-09-15T01:35:14.412Z,11.70
2017-09-15T01:37:42.694Z,11.70
2017-09-15T01:40:10.876Z,11.70
2017-09-15T01:42:40.295Z,11.60
2017-09-15T01:45:08.489Z,11.60
2017-09-15T01:47:36.626Z,11.60
2017-09-15T01:50:04.932Z,11.60
2017-09-15T01:52:33.133Z,11.60
2017-09-15T01:55:01.326Z,11.60
2017-09-15T01:57:29.592Z,11.50
2017-09-15T01:59:57.798Z,11.50
2017-09-15T02:02:25.975Z,11.50
2017-09-15T02:04:54.170Z,11.40
2017-09-15T02:07:22.351Z,11.40
2017-09-15T02:09:50.530Z,11.40
2017-09-15T02:12:18.728Z,11.40
2017-09-15T02:14:46.908Z,11.30
2017-09-15T02:17:15.082Z,11.30
2017-09-15T02:19:43.229Z,11.40
2017-09-15T02:22:11.378Z,11.40
2017-09-15T02:24:39.532Z,11.40
2017-09-15T02:27:07.680Z,11.40
2017-09-15T02:29:35.872Z,11.40
2017-09-15T02:32:04.097Z,11.30
2017-09-15T02:34:32.315Z,11.30
2017-09-15T02:37:00.463Z,11.30
2017-09-15T02:39:28.691Z,11.30
2017-09-15T02:41:56.822Z,11.20
2017-09-15T02:44:25.009Z,11.20
2017-09-15T02:46:53.967Z,11.20
2017-09-15T02:49:22.146Z,11.20
2017-09-15T02:51:50.362Z,11.20
2017-09-15T02:54:18.561Z,11.20
2017-09-15T02:56:46.694Z,11.20
2017-09-15T02:59:14.841Z,11.20
2017-09-15T03:01:43.030Z,11.20
2017-09-15T03:04:11.168Z,11.30
2017-09-15T03:06:39.318Z,11.20
2017-09-15T03:09:07.542Z,11.20
2017-09-15T03:11:35.740Z,11.10
2017-09-15T03:14:03.940Z,11.10
2017-09-15T03:16:32.130Z,11.10
2017-09-15T03:19:00.303Z,11.00
2017-09-15T03:21:28.480Z,11.00
2017-09-15T03:23:56.614Z,10.90
2017-09-15T03:26:24.831Z,10.90
2017-09-15T03:28:53.008Z,10.90
2017-09-15T03:31:21.229Z,10.90
2017-09-15T03:33:49.407Z,10.80
2017-09-15T03:36:18.342Z,10.70
2017-09-15T03:38:48.464Z,10.70
2017-09-15T03:41:16.614Z,10.70
2017-09-15T03:43:44.766Z,10.60
2017-09-15T03:46:16.684Z,10.60
2017-09-15T03:49:07.418Z,10.60
2017-09-15T03:51:36.759Z,10.60
2017-09-15T03:54:04.993Z,10.60
2017-09-15T03:56:33.400Z,10.50
2017-09-15T03:59:01.531Z,10.50
2017-09-15T04:01:30.083Z,10.60
2017-09-15T04:04:03.889Z,10.50
2017-09-15T04:06:32.071Z,10.50
2017-09-15T04:09:00.210Z,10.50
2017-09-15T04:11:28.398Z,10.50
2017-09-15T04:13:56.560Z,10.50
2017-09-15T04:16:26.745Z,10.50
2017-09-15T04:18:54.992Z,10.50
2017-09-15T04:21:31.905Z,10.50
2017-09-15T04:24:00.099Z,10.50
2017-09-15T04:26:29.032Z,10.60
2017-09-15T04:28:57.991Z,10.70
2017-09-15T04:31:26.173Z,10.60
2017-09-15T04:33:55.055Z,10.80
2017-09-15T04:36:23.415Z,10.80
2017-09-15T04:38:51.630Z,10.80
2017-09-15T04:41:19.833Z,10.80
2017-09-15T04:43:48.078Z,10.90
2017-09-15T04:46:16.314Z,10.90
2017-09-15T04:48:44.482Z,10.90
2017-09-15T04:51:14.579Z,10.80
2017-09-15T04:53:59.546Z,10.80
2017-09-15T04:56:29.011Z,10.70
2017-09-15T04:58:57.200Z,10.60
2017-09-15T05:01:25.430Z,10.60
2017-09-15T05:03:53.578Z,10.50
2017-09-15T05:06:21.814Z,10.50
2017-09-15T05:08:50.899Z,10.40
2017-09-15T05:11:19.055Z,10.40
2017-09-15T05:13:47.199Z,10.30
2017-09-15T05:16:15.370Z,10.30
2017-09-15T05:18:43.559Z,10.30
2017-09-15T05:21:11.791Z,10.30
2017-09-15T05:23:40.028Z,10.20
2017-09-15T05:26:08.266Z,10.30
2017-09-15T05:28:37.201Z,10.20
2017-09-15T05:31:05.367Z,10.20
2017-09-15T05:33:33.545Z,10.20
2017-09-15T05:36:02.981Z,10.20
2017-09-15T05:38:31.365Z,10.30
2017-09-15T05:40:59.554Z,10.30
2017-09-15T05:43:27.749Z,10.30
2017-09-15T05:45:55.894Z,10.30
2017-09-15T05:48:24.131Z,10.40
2017-09-15T05:50:52.316Z,10.40
2017-09-15T05:53:20.543Z,10.50
2017-09-15T05:55:48.738Z,10.60
2017-09-15T05:58:16.938Z,10.60
2017-09-15T06:00:45.212Z,10.60
2017-09-15T06:08:56.850Z,10.70
2017-09-15T06:11:25.799Z,10.80
2017-09-15T06:13:54.017Z,10.70
2017-09-15T06:16:22.966Z,10.80
2017-09-15T06:18:51.135Z,10.80
2017-09-15T06:21:19.467Z,10.90
2017-09-15T06:23:47.573Z,11.00
2017-09-15T06:26:15.706Z,11.00
2017-09-15T06:28:43.835Z,11.10
2017-09-15T06:31:12.591Z,11.10
2017-09-15T06:33:40.712Z,11.20
2017-09-15T06:36:08.913Z,11.20
2017-09-15T06:38:37.110Z,11.30
2017-09-15T06:41:05.278Z,11.40
2017-09-15T06:43:33.476Z,11.50
2017-09-15T06:46:02.393Z,11.60
2017-09-15T06:48:30.592Z,11.60
2017-09-15T06:50:58.787Z,11.70
2017-09-15T06:53:26.990Z,11.80
2017-09-15T06:55:55.188Z,11.80
2017-09-15T06:58:23.341Z,11.70
2017-09-15T07:00:51.843Z,11.70
2017-09-15T07:03:19.955Z,11.70
2017-09-15T07:05:48.903Z,11.60
2017-09-15T07:08:17.024Z,11.50
2017-09-15T07:10:45.194Z,11.60
2017-09-15T07:13:13.422Z,11.50
2017-09-15T07:15:42.318Z,11.50
2017-09-15T07:18:10.540Z,11.40
2017-09-15T07:20:38.688Z,11.50
2017-09-15T07:23:06.825Z,11.50
2017-09-15T07:25:35.237Z,11.60
2017-09-15T07:28:03.501Z,11.60
2017-09-15T07:30:31.746Z,11.60
2017-09-15T07:32:59.939Z,11.60
2017-09-15T07:35:28.115Z,11.70
2017-09-15T07:37:56.252Z,11.70
2017-09-15T07:40:24.420Z,11.80
2017-09-15T07:42:52.591Z,11.80
2017-09-15T07:45:20.778Z,11.90
2017-09-15T07:47:49.011Z,11.90
2017-09-15T07:50:17.192Z,12.00
2017-09-15T07:52:47.400Z,12.10
2017-09-15T07:55:15.603Z,12.00
2017-09-15T07:57:43.813Z,12.10
2017-09-15T08:00:11.990Z,12.10
2017-09-15T08:02:40.226Z,12.20
2017-09-15T08:05:08.399Z,12.30
2017-09-15T08:07:38.090Z,12.40
2017-09-15T08:10:06.214Z,12.40
2017-09-15T08:12:34.459Z,12.40
2017-09-15T08:15:02.682Z,12.40
2017-09-15T08:17:30.850Z,12.50
2017-09-15T08:19:59.001Z,12.60
2017-09-15T08:22:27.171Z,12.70
2017-09-15T08:24:55.312Z,12.80
2017-09-15T08:27:23.484Z,12.80
2017-09-15T08:29:51.627Z,12.90
2017-09-15T08:32:19.819Z,13.00
2017-09-15T08:34:47.998Z,13.00
2017-09-15T08:37:16.176Z,13.00
2017-09-15T08:39:44.408Z,13.00
2017-09-15T08:42:12.575Z,13.10
2017-09-15T08:44:40.744Z,13.40
2017-09-15T08:47:08.925Z,13.50
2017-09-15T08:49:37.869Z,13.70
2017-09-15T08:52:05.989Z,13.60
2017-09-15T08:54:34.194Z,13.80
2017-09-15T08:57:02.406Z,13.80
2017-09-15T08:59:30.636Z,14.00
2017-09-15T09:01:58.793Z,14.20
2017-09-15T09:04:26.949Z,14.40
2017-09-15T09:06:55.153Z,14.40
2017-09-15T09:09:23.684Z,14.30
2017-09-15T09:11:51.901Z,14.20
2017-09-15T09:14:20.082Z,14.10
2017-09-15T09:16:49.017Z,14.10
2017-09-15T09:19:17.186Z,14.10
2017-09-15T09:21:45.364Z,14.10
2017-09-15T09:24:13.533Z,14.10
2017-09-15T09:26:41.717Z,14.10
2017-09-15T09:29:09.976Z,14.10
2017-09-15T09:31:38.103Z,14.10
2017-09-15T09:34:06.424Z,14.10
2017-09-15T09:36:34.575Z,14.20
2017-09-15T09:39:02.794Z,14.30
2017-09-15T09:41:31.710Z,14.80
2017-09-15T09:43:59.918Z,14.80
2017-09-15T09:46:28.054Z,14.90
2017-09-15T09:48:56.269Z,14.80
2017-09-15T09:51:24.506Z,14.70
2017-09-15T09:53:53.391Z,14.80
2017-09-15T09:56:22.166Z,14.80
2017-09-15T09:58:50.359Z,14.80
2017-09-15T10:01:27.334Z,14.70
2017-09-15T10:03:55.483Z,14.70
2017-09-15T10:06:23.657Z,14.80
2017-09-15T10:08:51.887Z,15.00
2017-09-15T10:11:20.051Z,15.40
2017-09-15T10:13:48.261Z,15.70
2017-09-15T10:16:16.469Z,16.00
2017-09-15T10:18:44.616Z,16.30
2017-09-15T10:21:12.810Z,16.50
2017-09-15T10:23:40.979Z,16.60
2017-09-15T10:26:09.950Z,16.40
2017-09-15T10:28:38.078Z,16.40
2017-09-15T10:31:06.349Z,16.50
2017-09-15T10:33:34.466Z,16.60
2017-09-15T10:36:02.611Z,16.70
2017-09-15T10:38:30.750Z,16.70
2017-09-15T10:40:58.942Z,16.70
2017-09-15T10:43:27.141Z,16.60
2017-09-15T10:45:55.371Z,16.40
2017-09-15T10:48:23.516Z,16.20
2017-09-15T10:50:51.716Z,16.10
2017-09-15T10:53:19.970Z,16.20
2017-09-15T10:55:48.123Z,16.20
2017-09-15T10:58:21.955Z,16.60
2017-09-15T11:00:50.162Z,16.80
2017-09-15T11:03:18.346Z,16.50
2017-09-15T11:05:46.568Z,16.20
2017-09-15T11:08:14.812Z,15.90
2017-09-15T11:10:43.009Z,15.70
2017-09-15T11:13:11.256Z,15.60
2017-09-15T11:15:39.391Z,15.50
2017-09-15T11:18:08.295Z,15.50
2017-09-15T11:20:36.705Z,15.70
2017-09-15T11:23:04.909Z,16.30
2017-09-15T11:25:33.184Z,16.70
2017-09-15T11:28:01.530Z,16.70
2017-09-15T11:30:29.780Z,16.60
2017-09-15T11:32:57.938Z,16.40
2017-09-15T11:35:26.126Z,16.40
2017-09-15T11:37:54.299Z,16.50
2017-09-15T11:40:22.439Z,16.60
2017-09-15T11:42:50.583Z,16.70
2017-09-15T11:45:18.739Z,16.80
2017-09-15T11:47:46.928Z,16.70
2017-09-15T11:50:15.143Z,16.50
2017-09-15T11:52:43.261Z,16.30
2017-09-15T11:55:12.202Z,16.20
2017-09-15T11:57:40.344Z,16.20
2017-09-15T12:00:08.903Z,16.40
2017-09-15T12:02:37.054Z,16.60
2017-09-15T12:05:05.344Z,17.00
2017-09-15T12:07:33.629Z,17.20
2017-09-15T12:10:01.839Z,17.40
2017-09-15T12:12:30.012Z,17.60
2017-09-15T12:14:58.287Z,17.40
2017-09-15T12:17:26.496Z,17.40
2017-09-15T12:19:54.984Z,17.40
2017-09-15T12:22:23.354Z,17.50
2017-09-15T12:24:51.482Z,17.50
2017-09-15T12:27:19.684Z,17.40
2017-09-15T12:29:47.863Z,17.50
2017-09-15T12:32:16.039Z,17.70
2017-09-15T12:34:44.980Z,17.70
2017-09-15T12:37:13.143Z,17.70
2017-09-15T12:39:41.289Z,17.70
2017-09-15T12:42:09.458Z,17.80
2017-09-15T12:44:37.668Z,17.90
2017-09-15T12:47:05.967Z,17.70
2017-09-15T12:49:34.166Z,17.60
2017-09-15T12:52:02.674Z,17.50
2017-09-15T12:54:30.883Z,17.40
2017-09-15T12:56:59.291Z,17.50
2017-09-15T12:59:27.559Z,17.60
2017-09-15T13:01:56.069Z,17.80
2017-09-15T13:04:25.494Z,17.90
2017-09-15T13:06:57.303Z,17.80
2017-09-15T13:09:27.369Z,17.80
2017-09-15T13:11:55.604Z,17.60
2017-09-15T13:14:23.755Z,17.60
2017-09-15T13:16:51.991Z,17.60
2017-09-15T13:19:20.371Z,17.60
2017-09-15T13:21:48.588Z,17.50
2017-09-15T13:24:16.810Z,17.60
2017-09-15T13:26:45.088Z,17.80
2017-09-15T13:29:13.319Z,18.00
2017-09-15T13:31:41.538Z,17.90
2017-09-15T13:34:09.749Z,17.80
2017-09-15T13:36:38.606Z,17.70
2017-09-15T13:39:08.476Z,17.70
2017-09-15T13:41:37.463Z,17.70
2017-09-15T13:44:06.407Z,17.80
2017-09-15T13:46:35.503Z,17.80
2017-09-15T13:49:04.231Z,17.70
2017-09-15T13:51:32.658Z,17.60
2017-09-15T13:54:01.187Z,17.50
2017-09-15T13:56:31.153Z,17.30
2017-09-15T13:59:03.396Z,17.30
2017-09-15T14:01:32.527Z,17.50
2017-09-15T14:04:11.025Z,17.60
2017-09-15T14:06:39.353Z,17.70
2017-09-15T14:09:07.782Z,17.50
2017-09-15T14:11:35.946Z,17.20
2017-09-15T14:14:04.265Z,17.20
2017-09-15T14:16:32.454Z,17.10
2017-09-15T14:19:00.603Z,17.00
2017-09-15T14:21:28.741Z,16.80
2017-09-15T14:23:56.863Z,16.70
2017-09-15T14:26:25.094Z,16.60
2017-09-15T14:28:53.338Z,16.60
2017-09-15T14:31:21.566Z,16.60
2017-09-15T14:33:49.868Z,16.50
2017-09-15T14:36:19.003Z,16.60
2017-09-15T14:38:48.015Z,16.70
2017-09-15T14:41:16.575Z,16.80
2017-09-15T14:43:44.836Z,16.90
2017-09-15T14:46:13.984Z,16.90
2017-09-15T14:48:42.221Z,16.90
2017-09-15T14:51:10.333Z,17.20
2017-09-15T14:53:38.527Z,17.30
2017-09-15T14:56:06.786Z,17.30
2017-09-15T14:58:36.750Z,17.30
2017-09-15T15:01:04.905Z,17.30
2017-09-15T15:03:34.012Z,17.20
2017-09-15T15:06:02.204Z,17.20
2017-09-15T15:08:30.366Z,17.30
2017-09-15T15:10:58.519Z,17.20
2017-09-15T15:13:26.787Z,17.20
2017-09-15T15:15:54.960Z,17.00
2017-09-15T15:18:23.061Z,17.00
2017-09-15T15:20:51.216Z,17.10
2017-09-15T15:23:19.471Z,17.10
2017-09-15T15:25:49.481Z,17.10
2017-09-15T15:28:17.647Z,17.20
2017-09-15T15:30:45.793Z,17.30
2017-09-15T15:33:13.973Z,17.30
2017-09-15T15:35:42.303Z,17.30
2017-09-15T15:38:10.431Z,17.30
2017-09-15T15:40:38.680Z,17.20
2017-09-15T15:43:06.829Z,17.10
2017-09-15T15:45:35.898Z,16.80
2017-09-15T15:48:04.032Z,16.80
2017-09-15T15:50:33.186Z,16.70
2017-09-15T15:53:01.340Z,16.60
2017-09-15T15:55:29.536Z,16.60
2017-09-15T15:57:57.678Z,16.60
2017-09-15T16:00:25.926Z,16.70
2017-09-15T16:02:54.090Z,16.70
2017-09-15T16:05:22.322Z,16.60
2017-09-15T16:07:53.943Z,16.40
2017-09-15T16:10:22.195Z,16.30
2017-09-15T16:12:50.315Z,16.20
2017-09-15T16:15:20.923Z,16.10
2017-09-15T16:17:50.760Z,16.10
2017-09-15T16:20:19.077Z,16.10
2017-09-15T16:22:50.051Z,16.20
2017-09-15T16:25:18.289Z,16.30
2017-09-15T16:27:46.416Z,16.40
2017-09-15T16:30:14.642Z,16.40
2017-09-15T16:32:42.778Z,16.30
2017-09-15T16:35:10.983Z,16.20
2017-09-15T16:37:38.603Z,16.10
2017-09-15T16:40:13.149Z,15.70
2017-09-15T16:42:50.432Z,15.70
2017-09-15T16:45:24.263Z,15.60
2017-09-15T16:47:57.980Z,15.40
2017-09-15T16:50:26.084Z,15.30
2017-09-15T16:52:54.242Z,15.30
2017-09-15T16:55:22.410Z,15.20
2017-09-15T16:57:50.563Z,15.10
2017-09-15T17:00:18.698Z,15.00
2017-09-15T17:02:46.803Z,15.00
2017-09-15T17:05:15.689Z,14.90
2017-09-15T17:07:48.663Z,14.90
2017-09-15T17:10:16.810Z,14.90
2017-09-15T17:12:45.251Z,14.80
2017-09-15T17:15:14.195Z,14.50
2017-09-15T17:17:42.430Z,14.50
2017-09-15T17:20:21.871Z,14.40
2017-09-15T17:23:06.778Z,14.30
2017-09-15T17:25:36.078Z,14.30
2017-09-15T17:28:05.335Z,14.20
2017-09-15T17:30:35.199Z,14.10
2017-09-15T17:33:03.354Z,14.00
2017-09-15T17:35:31.677Z,13.90
2017-09-15T17:37:59.784Z,13.80
2017-09-15T17:40:28.016Z,13.70
2017-09-15T17:42:58.090Z,13.60
2017-09-15T17:48:15.186Z,13.50
2017-09-15T17:50:43.367Z,13.50
2017-09-15T17:53:11.823Z,13.40
2017-09-15T17:55:40.080Z,13.40
2017-09-15T17:58:08.219Z,13.30
2017-09-15T18:00:36.391Z,13.30
2017-09-15T18:03:04.825Z,13.20
2017-09-15T18:05:32.943Z,13.20
2017-09-15T18:08:01.166Z,13.20
2017-09-15T18:10:29.616Z,13.20
2017-09-15T18:12:57.821Z,13.10
2017-09-15T18:15:25.965Z,13.10
2017-09-15T18:17:54.966Z,13.10
2017-09-15T18:20:23.110Z,13.10
2017-09-15T18:22:51.291Z,13.00
2017-09-15T18:25:19.418Z,13.00
2017-09-15T18:27:47.675Z,12.90
2017-09-15T18:30:15.883Z,12.80
2017-09-15T18:32:43.979Z,12.80
2017-09-15T18:35:12.303Z,12.80
2017-09-15T18:37:41.432Z,12.70
2017-09-15T18:40:09.646Z,12.60
2017-09-15T18:42:38.632Z,12.60
2017-09-15T18:45:08.753Z,12.50
2017-09-15T18:47:37.095Z,12.50
2017-09-15T18:50:05.313Z,12.40
2017-09-15T18:52:33.419Z,12.40
2017-09-15T18:55:01.606Z,12.40
2017-09-15T18:57:30.862Z,12.30
2017-09-15T18:59:59.190Z,12.30
2017-09-15T19:02:27.331Z,12.20
2017-09-15T19:04:55.672Z,12.20
2017-09-15T19:07:23.843Z,12.20
2017-09-15T19:09:52.011Z,12.20
2017-09-15T19:12:20.223Z,12.20
2017-09-15T19:14:48.362Z,12.10
2017-09-15T19:17:16.635Z,12.00
2017-09-15T19:19:44.805Z,12.10
2017-09-15T19:22:12.919Z,12.10
2017-09-15T19:24:41.963Z,12.10
2017-09-15T19:27:24.649Z,12.10
2017-09-15T19:29:53.110Z,12.00
2017-09-15T19:32:21.456Z,12.00
2017-09-15T19:34:49.715Z,12.00
2017-09-15T19:37:17.832Z,11.90
2017-09-15T19:39:45.921Z,12.00
2017-09-15T19:42:14.102Z,11.90
2017-09-15T19:44:42.247Z,11.90
2017-09-15T19:47:10.499Z,11.80
2017-09-15T19:49:38.971Z,11.90
2017-09-15T19:52:07.298Z,11.90
2017-09-15T19:54:38.934Z,11.90
2017-09-15T19:57:07.169Z,11.90
2017-09-15T19:59:35.348Z,11.80
2017-09-15T20:02:03.475Z,11.80
2017-09-15T20:04:31.607Z,11.80
2017-09-15T20:06:59.834Z,11.80
2017-09-15T20:09:28.070Z,11.80
2017-09-15T20:11:56.354Z,11.80
2017-09-15T20:14:25.222Z,11.70
2017-09-15T20:16:53.319Z,11.70
2017-09-15T20:19:21.461Z,11.80
2017-09-15T20:21:55.319Z,11.80
2017-09-15T20:24:23.499Z,11.80
2017-09-15T20:26:51.616Z,11.80
2017-09-15T20:29:19.738Z,11.70
2017-09-15T20:31:47.977Z,11.70
2017-09-15T20:34:16.151Z,11.60
2017-09-15T20:36:45.200Z,11.70
2017-09-15T20:39:14.196Z,11.60
2017-09-15T20:41:42.334Z,11.60
2017-09-15T20:44:10.458Z,11.60
2017-09-15T20:46:38.599Z,11.60
2017-09-15T20:49:07.673Z,11.60
2017-09-15T20:51:35.811Z,11.50
2017-09-15T20:54:04.805Z,11.40
2017-09-15T20:56:32.993Z,11.40
2017-09-15T20:59:01.090Z,11.30
2017-09-15T21:01:29.248Z,11.30
2017-09-15T21:03:57.470Z,11.30
2017-09-15T21:06:25.651Z,11.20
2017-09-15T21:08:54.531Z,11.10
2017-09-15T21:11:22.779Z,11.10
2017-09-15T21:13:51.704Z,11.10
2017-09-15T21:16:20.011Z,11.10
2017-09-15T21:18:48.321Z,11.10
2017-09-15T21:21:19.905Z,11.20
2017-09-15T21:23:48.201Z,11.30
2017-09-15T21:26:16.306Z,11.30
2017-09-15T21:28:45.660Z,11.40
2017-09-15T21:31:13.909Z,11.40
2017-09-15T21:33:42.087Z,11.40
2017-09-15T21:36:10.294Z,11.40
2017-09-15T21:38:40.061Z,11.40
2017-09-15T21:41:08.186Z,11.40
2017-09-15T21:43:37.478Z,11.40
2017-09-15T21:46:05.631Z,11.30
2017-09-15T21:48:33.922Z,11.30
2017-09-15T21:51:02.176Z,11.20
2017-09-15T21:53:30.342Z,11.30
2017-09-15T21:55:58.476Z,11.20
2017-09-15T21:58:27.402Z,11.20
2017-09-15T22:00:56.302Z,11.20
2017-09-15T23:10:37.784Z,11.20
2017-09-15T23:13:05.941Z,10.80
2017-09-15T23:15:34.118Z,10.70
2017-09-15T23:18:02.260Z,10.80
2017-09-15T23:20:30.405Z,10.80
2017-09-15T23:22:58.569Z,10.70
2017-09-15T23:25:26.756Z,10.70
2017-09-15T23:27:54.906Z,10.60
2017-09-15T23:30:23.022Z,10.60
2017-09-15T23:32:51.264Z,10.60
2017-09-15T23:35:19.523Z,10.50
2017-09-15T23:37:48.400Z,10.40
2017-09-15T23:40:16.540Z,10.40
2017-09-15T23:42:44.736Z,10.40
2017-09-15T23:45:13.072Z,10.30
2017-09-15T23:47:41.267Z,10.30
2017-09-15T23:50:09.436Z,10.30
2017-09-15T23:52:37.771Z,10.30
2017-09-15T23:55:06.151Z,10.30
2017-09-15T23:57:34.340Z,10.30
